sensor_id;sensor_type;location;lat;lon;timestamp;P1;durP1;ratioP1;P2;durP2;ratioP2
26838;SDS011;40088;51.214;6.786;2023-07-29T00:01:29;8.10;;;4.60;;
26838;SDS011;40088;51.214;6.786;2023-07-29T00:11:29;6.63;;;4.57;;
26838;SDS011;40088;51.214;6.786;2023-07-29T00:21:30;6.05;;;3.88;;
26838;SDS011;40088;51.214;6.786;2023-07-29T00:31:30;5.80;;;4.22;;
26838;SDS011;40088;51.214;6.786;2023-07-29T00:41:31;6.78;;;4.72;;
26838;SDS011;40088;51.214;6.786;2023-07-29T00:51:31;6.07;;;4.35;;
26838;SDS011;40088;51.214;6.786;2023-07-29T01:01:31;6.32;;;4.35;;
26838;SDS011;40088;51.214;6.786;2023-07-29T01:11:45;7.67;;;5.20;;
26838;SDS011;40088;51.214;6.786;2023-07-29T01:22:02;7.70;;;4.32;;
26838;SDS011;40088;51.214;6.786;2023-07-29T01:32:14;6.15;;;4.65;;
26838;SDS011;40088;51.214;6.786;2023-07-29T01:42:36;7.67;;;5.00;;
26838;SDS011;40088;51.214;6.786;2023-07-29T01:52:37;4.95;;;4.00;;
26838;SDS011;40088;51.214;6.786;2023-07-29T02:02:37;7.43;;;4.63;;
26838;SDS011;40088;51.214;6.786;2023-07-29T02:12:38;7.55;;;4.88;;
26838;SDS011;40088;51.214;6.786;2023-07-29T02:22:38;6.10;;;3.90;;
26838;SDS011;40088;51.214;6.786;2023-07-29T02:32:39;7.43;;;4.85;;
26838;SDS011;40088;51.214;6.786;2023-07-29T02:42:39;8.02;;;5.00;;
26838;SDS011;40088;51.214;6.786;2023-07-29T02:52:40;8.65;;;4.85;;
26838;SDS011;40088;51.214;6.786;2023-07-29T03:02:40;7.97;;;5.30;;
26838;SDS011;40088;51.214;6.786;2023-07-29T03:12:40;5.22;;;3.50;;
26838;SDS011;40088;51.214;6.786;2023-07-29T03:22:40;5.45;;;3.60;;
26838;SDS011;40088;51.214;6.786;2023-07-29T03:32:42;5.47;;;3.90;;
26838;SDS011;40088;51.214;6.786;2023-07-29T03:42:44;5.30;;;4.07;;
26838;SDS011;40088;51.214;6.786;2023-07-29T03:52:45;4.30;;;3.80;;
26838;SDS011;40088;51.214;6.786;2023-07-29T04:02:45;7.00;;;3.42;;
26838;SDS011;40088;51.214;6.786;2023-07-29T04:12:45;4.95;;;3.65;;
26838;SDS011;40088;51.214;6.786;2023-07-29T04:22:46;5.20;;;3.63;;
26838;SDS011;40088;51.214;6.786;2023-07-29T04:32:46;7.53;;;3.28;;
26838;SDS011;40088;51.214;6.786;2023-07-29T04:42:48;5.82;;;3.72;;
26838;SDS011;40088;51.214;6.786;2023-07-29T04:52:49;6.88;;;3.97;;
26838;SDS011;40088;51.214;6.786;2023-07-29T05:02:49;4.85;;;3.25;;
26838;SDS011;40088;51.214;6.786;2023-07-29T05:12:49;6.28;;;3.70;;
26838;SDS011;40088;51.214;6.786;2023-07-29T05:22:50;4.95;;;3.30;;
26838;SDS011;40088;51.214;6.786;2023-07-29T05:32:50;4.85;;;3.30;;
26838;SDS011;40088;51.214;6.786;2023-07-29T05:42:50;6.22;;;3.55;;
26838;SDS011;40088;51.214;6.786;2023-07-29T05:52:51;8.57;;;4.65;;
26838;SDS011;40088;51.214;6.786;2023-07-29T06:02:51;6.45;;;3.53;;
26838;SDS011;40088;51.214;6.786;2023-07-29T06:12:51;5.78;;;3.38;;
26838;SDS011;40088;51.214;6.786;2023-07-29T06:22:51;6.63;;;4.03;;
26838;SDS011;40088;51.214;6.786;2023-07-29T06:32:52;5.82;;;3.90;;
26838;SDS011;40088;51.214;6.786;2023-07-29T06:42:52;4.65;;;3.30;;
26838;SDS011;40088;51.214;6.786;2023-07-29T06:52:52;5.50;;;3.67;;
26838;SDS011;40088;51.214;6.786;2023-07-29T07:02:53;6.82;;;4.30;;
26838;SDS011;40088;51.214;6.786;2023-07-29T07:12:53;3.78;;;3.10;;
26838;SDS011;40088;51.214;6.786;2023-07-29T07:22:53;6.05;;;3.83;;
26838;SDS011;40088;51.214;6.786;2023-07-29T07:32:54;7.53;;;4.15;;
26838;SDS011;40088;51.214;6.786;2023-07-29T07:42:54;6.28;;;3.45;;
26838;SDS011;40088;51.214;6.786;2023-07-29T07:52:54;5.88;;;4.07;;
26838;SDS011;40088;51.214;6.786;2023-07-29T08:02:55;5.35;;;3.67;;
26838;SDS011;40088;51.214;6.786;2023-07-29T08:12:55;6.55;;;3.60;;
26838;SDS011;40088;51.214;6.786;2023-07-29T08:22:55;5.85;;;3.70;;
26838;SDS011;40088;51.214;6.786;2023-07-29T08:32:56;5.93;;;3.88;;
26838;SDS011;40088;51.214;6.786;2023-07-29T08:42:56;5.97;;;3.80;;
26838;SDS011;40088;51.214;6.786;2023-07-29T08:52:59;8.10;;;4.78;;
26838;SDS011;40088;51.214;6.786;2023-07-29T09:03:00;4.03;;;3.23;;
26838;SDS011;40088;51.214;6.786;2023-07-29T09:13:06;4.97;;;3.45;;
26838;SDS011;40088;51.214;6.786;2023-07-29T09:23:07;7.93;;;5.45;;
26838;SDS011;40088;51.214;6.786;2023-07-29T09:33:12;11.07;;;7.82;;
26838;SDS011;40088;51.214;6.786;2023-07-29T09:43:12;8.37;;;5.00;;
26838;SDS011;40088;51.214;6.786;2023-07-29T09:53:12;5.60;;;3.35;;
26838;SDS011;40088;51.214;6.786;2023-07-29T10:03:14;7.15;;;3.50;;
26838;SDS011;40088;51.214;6.786;2023-07-29T10:13:15;6.50;;;4.75;;
26838;SDS011;40088;51.214;6.786;2023-07-29T10:23:16;5.20;;;4.43;;
26838;SDS011;40088;51.214;6.786;2023-07-29T10:33:18;5.75;;;4.80;;
26838;SDS011;40088;51.214;6.786;2023-07-29T10:43:19;5.88;;;4.53;;
26838;SDS011;40088;51.214;6.786;2023-07-29T10:53:29;3.75;;;3.45;;
26838;SDS011;40088;51.214;6.786;2023-07-29T11:03:30;3.85;;;3.45;;
26838;SDS011;40088;51.214;6.786;2023-07-29T11:13:31;3.60;;;3.17;;
26838;SDS011;40088;51.214;6.786;2023-07-29T11:23:34;4.50;;;4.00;;
26838;SDS011;40088;51.214;6.786;2023-07-29T11:33:38;4.80;;;4.07;;
26838;SDS011;40088;51.214;6.786;2023-07-29T11:43:39;3.80;;;3.25;;
26838;SDS011;40088;51.214;6.786;2023-07-29T11:53:40;3.00;;;2.70;;
26838;SDS011;40088;51.214;6.786;2023-07-29T12:03:42;4.05;;;3.65;;
26838;SDS011;40088;51.214;6.786;2023-07-29T12:13:43;4.75;;;4.00;;
26838;SDS011;40088;51.214;6.786;2023-07-29T12:23:43;5.15;;;4.65;;
26838;SDS011;40088;51.214;6.786;2023-07-29T12:33:44;6.20;;;5.60;;
26838;SDS011;40088;51.214;6.786;2023-07-29T12:43:44;8.02;;;5.72;;
26838;SDS011;40088;51.214;6.786;2023-07-29T12:53:45;5.80;;;5.20;;
26838;SDS011;40088;51.214;6.786;2023-07-29T13:03:45;6.43;;;5.57;;
26838;SDS011;40088;51.214;6.786;2023-07-29T13:13:45;9.40;;;8.07;;
26838;SDS011;40088;51.214;6.786;2023-07-29T13:23:46;5.70;;;5.10;;
26838;SDS011;40088;51.214;6.786;2023-07-29T13:33:46;5.07;;;4.57;;
26838;SDS011;40088;51.214;6.786;2023-07-29T13:43:46;5.22;;;4.15;;
26838;SDS011;40088;51.214;6.786;2023-07-29T13:53:47;4.18;;;3.75;;
26838;SDS011;40088;51.214;6.786;2023-07-29T14:03:47;6.97;;;4.72;;
26838;SDS011;40088;51.214;6.786;2023-07-29T14:13:47;3.90;;;3.33;;
26838;SDS011;40088;51.214;6.786;2023-07-29T14:23:48;3.45;;;3.15;;
26838;SDS011;40088;51.214;6.786;2023-07-29T14:33:48;4.35;;;3.40;;
26838;SDS011;40088;51.214;6.786;2023-07-29T14:43:49;3.53;;;3.22;;
26838;SDS011;40088;51.214;6.786;2023-07-29T14:53:49;3.13;;;2.83;;
26838;SDS011;40088;51.214;6.786;2023-07-29T15:03:50;3.25;;;2.92;;
26838;SDS011;40088;51.214;6.786;2023-07-29T15:13:50;3.58;;;3.28;;
26838;SDS011;40088;51.214;6.786;2023-07-29T15:23:50;10.23;;;8.73;;
26838;SDS011;40088;51.214;6.786;2023-07-29T15:33:51;4.13;;;2.95;;
26838;SDS011;40088;51.214;6.786;2023-07-29T15:43:51;5.97;;;5.32;;
26838;SDS011;40088;51.214;6.786;2023-07-29T15:53:51;5.82;;;5.22;;
26838;SDS011;40088;51.214;6.786;2023-07-29T16:03:52;6.80;;;6.10;;
26838;SDS011;40088;51.214;6.786;2023-07-29T16:13:52;8.38;;;6.53;;
26838;SDS011;40088;51.214;6.786;2023-07-29T16:23:52;6.53;;;5.22;;
26838;SDS011;40088;51.214;6.786;2023-07-29T16:33:52;5.15;;;3.88;;
26838;SDS011;40088;51.214;6.786;2023-07-29T16:43:53;9.10;;;6.53;;
26838;SDS011;40088;51.214;6.786;2023-07-29T16:53:53;7.28;;;5.05;;
26838;SDS011;40088;51.214;6.786;2023-07-29T17:03:53;4.80;;;4.28;;
26838;SDS011;40088;51.214;6.786;2023-07-29T17:13:54;6.70;;;5.20;;
26838;SDS011;40088;51.214;6.786;2023-07-29T17:23:54;10.77;;;9.23;;
26838;SDS011;40088;51.214;6.786;2023-07-29T17:33:54;4.75;;;4.05;;
26838;SDS011;40088;51.214;6.786;2023-07-29T17:43:55;6.78;;;4.38;;
26838;SDS011;40088;51.214;6.786;2023-07-29T17:53:55;5.97;;;4.80;;
26838;SDS011;40088;51.214;6.786;2023-07-29T18:03:55;12.90;;;6.30;;
26838;SDS011;40088;51.214;6.786;2023-07-29T18:13:56;8.00;;;5.80;;
26838;SDS011;40088;51.214;6.786;2023-07-29T18:23:56;11.85;;;7.72;;
26838;SDS011;40088;51.214;6.786;2023-07-29T18:33:56;12.02;;;8.75;;
26838;SDS011;40088;51.214;6.786;2023-07-29T18:43:56;12.23;;;8.88;;
26838;SDS011;40088;51.214;6.786;2023-07-29T18:53:57;12.88;;;9.38;;
26838;SDS011;40088;51.214;6.786;2023-07-29T19:03:58;12.35;;;9.55;;
26838;SDS011;40088;51.214;6.786;2023-07-29T19:13:58;12.85;;;10.02;;
26838;SDS011;40088;51.214;6.786;2023-07-29T19:23:59;11.60;;;9.30;;
26838;SDS011;40088;51.214;6.786;2023-07-29T19:33:59;11.32;;;8.52;;
26838;SDS011;40088;51.214;6.786;2023-07-29T19:44:00;12.10;;;8.70;;
26838;SDS011;40088;51.214;6.786;2023-07-29T19:54:00;11.00;;;9.00;;
26838;SDS011;40088;51.214;6.786;2023-07-29T20:04:00;11.77;;;9.50;;
26838;SDS011;40088;51.214;6.786;2023-07-29T20:14:01;10.60;;;8.35;;
26838;SDS011;40088;51.214;6.786;2023-07-29T20:24:01;10.80;;;7.95;;
26838;SDS011;40088;51.214;6.786;2023-07-29T20:34:01;12.30;;;8.20;;
26838;SDS011;40088;51.214;6.786;2023-07-29T20:44:02;12.23;;;7.63;;
26838;SDS011;40088;51.214;6.786;2023-07-29T20:54:02;12.25;;;7.78;;
26838;SDS011;40088;51.214;6.786;2023-07-29T21:04:02;10.63;;;7.15;;
26838;SDS011;40088;51.214;6.786;2023-07-29T21:14:03;10.68;;;6.72;;
26838;SDS011;40088;51.214;6.786;2023-07-29T21:24:03;8.18;;;6.57;;
26838;SDS011;40088;51.214;6.786;2023-07-29T21:34:04;9.70;;;7.43;;
26838;SDS011;40088;51.214;6.786;2023-07-29T21:44:04;8.95;;;6.10;;
26838;SDS011;40088;51.214;6.786;2023-07-29T21:54:05;7.75;;;6.47;;
26838;SDS011;40088;51.214;6.786;2023-07-29T22:04:05;8.50;;;6.00;;
26838;SDS011;40088;51.214;6.786;2023-07-29T22:14:05;7.70;;;5.60;;
26838;SDS011;40088;51.214;6.786;2023-07-29T22:24:06;7.10;;;5.60;;
26838;SDS011;40088;51.214;6.786;2023-07-29T22:34:08;6.60;;;5.28;;
26838;SDS011;40088;51.214;6.786;2023-07-29T22:44:08;8.10;;;6.38;;
26838;SDS011;40088;51.214;6.786;2023-07-29T22:54:08;6.80;;;5.18;;
26838;SDS011;40088;51.214;6.786;2023-07-29T23:04:09;8.98;;;6.50;;
26838;SDS011;40088;51.214;6.786;2023-07-29T23:14:09;6.88;;;5.38;;
26838;SDS011;40088;51.214;6.786;2023-07-29T23:24:09;6.95;;;5.30;;
26838;SDS011;40088;51.214;6.786;2023-07-29T23:34:09;8.05;;;5.25;;
26838;SDS011;40088;51.214;6.786;2023-07-29T23:44:12;7.03;;;4.97;;
26838;SDS011;40088;51.214;6.786;2023-07-29T23:54:12;6.68;;;5.30;;
